Time,TemperatureF,DewpointF,PressureIn,WindDirection,WindDirectionDegrees,WindSpeedMPH,WindSpeedGustMPH,Humidity,HourlyPrecipIn,Conditions,Clouds,dailyrainin,SoftwareType,DateUTC
2013-05-03 00:00:00,59.9,39.6,30.08,NW,318,0.0,0.0,47,0.00,,CLR,0.00,VWS V14.01,2013-05-03 07:00:00,
2013-05-03 00:10:00,59.7,39.5,30.08,NW,318,0.0,2.7,47,0.00,,CLR,0.00,VWS V14.01,2013-05-03 07:10:00,
2013-05-03 00:20:00,59.4,41.2,30.08,NW,318,0.0,0.0,51,0.00,,CLR,0.00,VWS V14.01,2013-05-03 07:20:00,
2013-05-03 00:30:00,59.2,40.6,30.08,ENE,78,0.0,4.8,50,0.00,,CLR,0.00,VWS V14.01,2013-05-03 07:30:00,
2013-05-03 00:40:00,58.8,38.7,30.08,ENE,78,2.7,3.2,47,0.00,,CLR,0.00,VWS V14.01,2013-05-03 07:40:00,
2013-05-03 00:50:00,58.5,36.7,30.08,NNE,22,2.7,4.3,44,0.00,,CLR,0.00,VWS V14.01,2013-05-03 07:50:00,
2013-05-03 01:00:00,58.5,34.9,30.08,ENE,76,0.0,4.8,41,0.00,,CLR,0.00,VWS V14.01,2013-05-03 08:00:00,
2013-05-03 01:10:00,58.5,34.2,30.08,NNW,345,4.8,4.8,40,0.00,,CLR,0.00,VWS V14.01,2013-05-03 08:10:00,
2013-05-03 01:20:00,59.0,32.8,30.08,NW,316,4.3,6.4,37,0.00,,CLR,0.00,VWS V14.01,2013-05-03 08:20:00,
2013-05-03 01:30:00,60.4,33.4,30.05,North,0,4.8,7.0,36,0.00,,CLR,0.00,VWS V14.01,2013-05-03 08:30:00,
2013-05-03 01:40:00,61.9,33.2,30.05,North,0,7.0,7.5,34,0.00,,CLR,0.00,VWS V14.01,2013-05-03 08:40:00,
2013-05-03 01:50:00,63.3,33.0,30.05,NNE,17,4.8,7.0,32,0.00,,CLR,0.00,VWS V14.01,2013-05-03 08:50:00,
2013-05-03 02:00:00,64.0,32.8,30.05,North,1,4.8,7.5,31,0.00,,CLR,0.00,VWS V14.01,2013-05-03 09:00:00,
2013-05-03 02:10:00,63.5,32.3,30.05,NNE,21,3.8,5.9,31,0.00,,CLR,0.00,VWS V14.01,2013-05-03 09:10:00,
2013-05-03 02:20:00,63.0,31.9,30.05,NNE,19,3.8,6.4,31,0.00,,CLR,0.00,VWS V14.01,2013-05-03 09:20:00,
2013-05-03 02:30:00,61.9,31.7,30.02,North,356,0.0,4.8,32,0.00,,CLR,0.00,VWS V14.01,2013-05-03 09:30:00,
2013-05-03 02:40:00,61.0,30.9,30.02,NNW,337,3.2,5.9,32,0.00,,CLR,0.00,VWS V14.01,2013-05-03 09:40:00,
2013-05-03 02:50:00,60.3,31.1,30.02,NNW,337,2.7,4.8,33,0.00,,CLR,0.00,VWS V14.01,2013-05-03 09:50:00,
2013-05-03 03:00:00,60.3,30.3,30.02,NNW,342,2.7,7.5,32,0.00,,CLR,0.00,VWS V14.01,2013-05-03 10:00:00,
2013-05-03 03:10:00,60.1,30.9,30.02,WSW,246,0.0,3.2,33,0.00,,CLR,0.00,VWS V14.01,2013-05-03 10:10:00,
2013-05-03 03:20:00,59.5,31.2,30.02,NW,325,5.9,5.9,34,0.00,,CLR,0.00,VWS V14.01,2013-05-03 10:20:00,
2013-05-03 03:30:00,59.0,30.7,30.02,WNW,300,4.3,5.9,34,0.00,,CLR,0.00,VWS V14.01,2013-05-03 10:30:00,
2013-05-03 03:40:00,58.8,30.5,30.02,NW,317,3.2,5.9,34,0.00,,CLR,0.00,VWS V14.01,2013-05-03 10:40:00,
2013-05-03 03:50:00,58.6,30.4,30.02,NNW,334,3.8,4.8,34,0.00,,CLR,0.00,VWS V14.01,2013-05-03 10:50:00,
2013-05-03 04:00:00,58.3,30.8,30.02,NNW,334,2.7,3.8,35,0.00,,CLR,0.00,VWS V14.01,2013-05-03 11:00:00,
2013-05-03 04:10:00,57.9,29.7,30.02,NNE,18,3.2,3.2,34,0.00,,CLR,0.00,VWS V14.01,2013-05-03 11:10:00,
2013-05-03 04:20:00,58.1,29.2,30.02,North,1,3.8,5.9,33,0.00,,CLR,0.00,VWS V14.01,2013-05-03 11:20:00,
2013-05-03 04:30:00,58.8,28.3,30.02,North,7,4.3,7.5,31,0.00,,CLR,0.00,VWS V14.01,2013-05-03 11:30:00,
2013-05-03 04:40:00,59.4,27.1,30.02,North,8,4.3,7.0,29,0.00,,CLR,0.00,VWS V14.01,2013-05-03 11:40:00,
2013-05-03 04:50:00,59.2,27.8,30.02,NNE,17,3.2,4.8,30,0.00,,CLR,0.00,VWS V14.01,2013-05-03 11:50:00,
2013-05-03 05:00:00,58.8,27.5,29.99,North,356,3.2,7.0,30,0.00,,CLR,0.00,VWS V14.01,2013-05-03 12:00:00,
2013-05-03 05:10:00,58.6,26.5,29.99,ENE,59,0.0,4.8,29,0.00,,CLR,0.00,VWS V14.01,2013-05-03 12:10:00,
2013-05-03 05:20:00,59.7,25.7,29.99,North,0,5.9,7.5,27,0.00,,CLR,0.00,VWS V14.01,2013-05-03 12:20:00,
2013-05-03 05:30:00,61.7,26.5,29.99,North,0,6.4,8.6,26,0.00,,CLR,0.00,VWS V14.01,2013-05-03 12:30:00,
2013-05-03 05:40:00,63.5,27.1,29.99,North,351,7.0,9.1,25,0.00,,CLR,0.00,VWS V14.01,2013-05-03 12:40:00,
2013-05-03 05:50:00,63.7,27.2,29.99,NNE,12,5.9,8.1,25,0.00,,CLR,0.00,VWS V14.01,2013-05-03 12:50:00,
2013-05-03 06:00:00,63.3,26.9,29.99,North,356,4.3,7.5,25,0.00,,CLR,0.00,VWS V14.01,2013-05-03 13:00:00,
2013-05-03 06:10:00,62.8,26.5,29.99,North,10,2.7,4.8,25,0.00,,,0.00,VWS V14.01,2013-05-03 13:10:00,
2013-05-03 06:20:00,62.2,26.0,29.99,North,356,3.2,5.9,25,0.00,,,0.00,VWS V14.01,2013-05-03 13:20:00,
2013-05-03 06:30:00,61.9,25.7,29.99,North,3,3.2,6.4,25,0.00,,,0.00,VWS V14.01,2013-05-03 13:30:00,
2013-05-03 06:40:00,63.0,25.6,29.99,North,3,6.4,9.1,24,0.00,,,0.00,VWS V14.01,2013-05-03 13:40:00,
2013-05-03 06:50:00,65.1,27.5,29.99,NE,34,4.3,9.1,24,0.00,,CLR,0.00,VWS V14.01,2013-05-03 13:50:00,
2013-05-03 07:00:00,66.4,27.5,29.99,NNE,14,7.0,10.5,23,0.00,,CLR,0.00,VWS V14.01,2013-05-03 14:00:00,
2013-05-03 07:10:00,67.3,28.2,29.99,North,11,7.0,9.7,23,0.00,,CLR,0.00,VWS V14.01,2013-05-03 14:10:00,
2013-05-03 07:20:00,68.4,28.1,29.99,NNE,15,6.4,9.1,22,0.00,,CLR,0.00,VWS V14.01,2013-05-03 14:20:00,
2013-05-03 07:30:00,68.9,28.5,29.99,NE,42,7.5,10.5,22,0.00,,CLR,0.00,VWS V14.01,2013-05-03 14:30:00,
2013-05-03 07:40:00,69.8,29.3,29.99,North,5,7.0,9.9,22,0.00,,CLR,0.00,VWS V14.01,2013-05-03 14:40:00,
2013-05-03 07:50:00,70.3,29.7,29.99,NE,39,6.4,9.1,22,0.00,,CLR,0.00,VWS V14.01,2013-05-03 14:50:00,
2013-05-03 08:00:00,70.9,30.2,29.99,NNE,33,8.1,9.7,22,0.00,,CLR,0.00,VWS V14.01,2013-05-03 15:00:00,
2013-05-03 08:10:00,72.0,29.9,29.99,North,6,7.5,13.2,21,0.00,,CLR,0.00,VWS V14.01,2013-05-03 15:10:00,
2013-05-03 08:20:00,72.5,30.4,29.99,NNE,25,6.4,12.6,21,0.00,,CLR,0.00,VWS V14.01,2013-05-03 15:20:00,
2013-05-03 08:30:00,74.1,31.7,29.99,NNE,12,6.4,11.0,21,0.00,,CLR,0.00,VWS V14.01,2013-05-03 15:30:00,
2013-05-03 08:40:00,75.2,31.4,29.99,North,356,7.5,10.5,20,0.00,,CLR,0.00,VWS V14.01,2013-05-03 15:40:00,
2013-05-03 08:50:00,76.1,32.2,29.99,NNE,19,7.0,9.7,20,0.00,,CLR,0.00,VWS V14.01,2013-05-03 15:50:00,
2013-05-03 09:00:00,76.8,32.8,29.99,NNE,26,6.4,9.1,20,0.00,,CLR,0.00,VWS V14.01,2013-05-03 16:00:00,
2013-05-03 09:10:00,77.0,32.9,29.99,NNE,33,5.9,7.5,20,0.00,,CLR,0.00,VWS V14.01,2013-05-03 16:10:00,
2013-05-03 09:20:00,77.4,33.2,29.99,NNE,24,4.8,11.5,20,0.00,,CLR,0.00,VWS V14.01,2013-05-03 16:20:00,
2013-05-03 09:30:00,78.1,35.0,29.99,NNE,24,6.4,8.1,21,0.00,,CLR,0.00,VWS V14.01,2013-05-03 16:30:00,
2013-05-03 09:40:00,79.2,34.7,29.99,North,6,6.4,7.5,20,0.00,,CLR,0.00,VWS V14.01,2013-05-03 16:40:00,
2013-05-03 09:50:00,79.9,35.3,29.99,North,356,3.2,8.1,20,0.00,,CLR,0.00,VWS V14.01,2013-05-03 16:50:00,
2013-05-03 10:00:00,80.6,31.8,29.96,North,3,0.0,5.9,17,0.00,,CLR,0.00,VWS V14.01,2013-05-03 17:00:00,
2013-05-03 10:10:00,80.8,32.0,29.96,NW,324,0.0,3.2,17,0.00,,CLR,0.00,VWS V14.01,2013-05-03 17:10:00,
2013-05-03 10:20:00,81.3,32.4,29.96,NE,43,0.0,3.8,17,0.00,,CLR,0.00,VWS V14.01,2013-05-03 17:20:00,
2013-05-03 10:30:00,82.0,33.0,29.96,East,87,4.8,5.9,17,0.00,,CLR,0.00,VWS V14.01,2013-05-03 17:30:00,
2013-05-03 10:40:00,82.9,32.2,29.96,ESE,108,0.0,7.0,16,0.00,,CLR,0.00,VWS V14.01,2013-05-03 17:40:00,
2013-05-03 10:50:00,83.8,32.9,29.96,East,101,0.0,3.8,16,0.00,,CLR,0.00,VWS V14.01,2013-05-03 17:50:00,
2013-05-03 11:00:00,85.1,33.9,29.96,South,176,3.2,7.5,16,0.00,,CLR,0.00,VWS V14.01,2013-05-03 18:00:00,
2013-05-03 11:10:00,86.7,38.2,29.96,South,177,4.8,7.5,18,0.00,,CLR,0.00,VWS V14.01,2013-05-03 18:10:00,
2013-05-03 11:20:00,88.0,39.2,29.96,WSW,246,3.8,9.9,18,0.00,,CLR,0.00,VWS V14.01,2013-05-03 18:20:00,
2013-05-03 11:30:00,88.7,39.8,29.96,SSW,197,6.4,9.9,18,0.00,,CLR,0.00,VWS V14.01,2013-05-03 18:30:00,
2013-05-03 11:40:00,88.9,39.9,29.96,SW,214,5.9,10.5,18,0.00,,CLR,0.00,VWS V14.01,2013-05-03 18:40:00,
2013-05-03 11:50:00,88.7,39.8,29.96,SSW,194,7.0,11.0,18,0.00,,CLR,0.00,VWS V14.01,2013-05-03 18:50:00,
2013-05-03 12:00:00,88.7,35.2,29.96,West,276,7.0,10.5,15,0.00,,CLR,0.00,VWS V14.01,2013-05-03 19:00:00,
2013-05-03 12:10:00,89.2,35.6,29.93,WSW,243,6.4,10.5,15,0.00,,CLR,0.00,VWS V14.01,2013-05-03 19:10:00,
2013-05-03 12:20:00,89.8,36.0,29.93,SW,223,3.8,12.1,15,0.00,,CLR,0.00,VWS V14.01,2013-05-03 19:20:00,
2013-05-03 12:30:00,90.1,36.3,29.93,SW,232,4.8,12.6,15,0.00,,CLR,0.00,VWS V14.01,2013-05-03 19:30:00,
2013-05-03 12:40:00,90.1,30.7,29.93,WSW,239,7.5,12.6,12,0.00,,CLR,0.00,VWS V14.01,2013-05-03 19:40:00,
2013-05-03 12:50:00,90.3,30.9,29.93,WNW,301,4.3,10.5,12,0.00,,CLR,0.00,VWS V14.01,2013-05-03 19:50:00,
2013-05-03 13:00:00,90.3,30.9,29.93,SSW,201,4.8,13.2,12,0.00,,CLR,0.00,VWS V14.01,2013-05-03 20:00:00,
2013-05-03 13:10:00,90.1,30.7,29.93,SW,236,4.8,12.6,12,0.00,,CLR,0.00,VWS V14.01,2013-05-03 20:10:00,
2013-05-03 13:20:00,90.3,30.9,29.93,South,173,7.0,14.2,12,0.00,,CLR,0.00,VWS V14.01,2013-05-03 20:20:00,
2013-05-03 13:30:00,90.5,31.0,29.93,SW,234,7.0,12.6,12,0.00,,CLR,0.00,VWS V14.01,2013-05-03 20:30:00,
2013-05-03 13:40:00,89.8,30.5,29.93,SW,221,7.5,13.2,12,0.00,,CLR,0.00,VWS V14.01,2013-05-03 20:40:00,
2013-05-03 13:50:00,89.4,35.7,29.93,WSW,239,10.5,13.2,15,0.00,,CLR,0.00,VWS V14.01,2013-05-03 20:50:00,
2013-05-03 14:00:00,89.2,35.6,29.93,WNW,284,8.6,12.6,15,0.00,,CLR,0.00,VWS V14.01,2013-05-03 21:00:00,
2013-05-03 14:10:00,89.1,35.5,29.93,SSW,201,7.0,11.5,15,0.00,,CLR,0.00,VWS V14.01,2013-05-03 21:10:00,
2013-05-03 14:20:00,89.1,35.5,29.93,SW,216,5.9,12.1,15,0.00,,CLR,0.00,VWS V14.01,2013-05-03 21:20:00,
2013-05-03 14:30:00,89.2,35.6,29.90,SW,216,4.8,10.5,15,0.00,,CLR,0.00,VWS V14.01,2013-05-03 21:30:00,
2013-05-03 14:40:00,88.3,34.9,29.90,SW,222,6.4,11.0,15,0.00,,CLR,0.00,VWS V14.01,2013-05-03 21:40:00,
2013-05-03 14:50:00,88.5,35.0,29.90,West,269,8.1,11.5,15,0.00,,CLR,0.00,VWS V14.01,2013-05-03 21:50:00,
2013-05-03 15:00:00,88.7,35.2,29.90,South,190,8.6,13.2,15,0.00,,CLR,0.00,VWS V14.01,2013-05-03 22:00:00,
2013-05-03 15:10:00,88.9,35.3,29.90,WNW,301,5.9,10.5,15,0.00,,CLR,0.00,VWS V14.01,2013-05-03 22:10:00,
2013-05-03 15:20:00,89.2,35.6,29.90,SW,223,6.4,11.5,15,0.00,,CLR,0.00,VWS V14.01,2013-05-03 22:20:00,
2013-05-03 15:30:00,89.2,35.6,29.90,WSW,244,7.0,10.5,15,0.00,,CLR,0.00,VWS V14.01,2013-05-03 22:30:00,
2013-05-03 15:40:00,89.2,35.6,29.90,South,190,7.0,12.6,15,0.00,,CLR,0.00,VWS V14.01,2013-05-03 22:40:00,
2013-05-03 15:50:00,87.6,35.9,29.90,SSW,196,3.8,12.6,16,0.00,,CLR,0.00,VWS V14.01,2013-05-03 22:50:00,
2013-05-03 16:00:00,87.4,38.8,29.87,WSW,240,3.8,9.9,18,0.00,,CLR,0.00,VWS V14.01,2013-05-03 23:00:00,
2013-05-03 16:10:00,87.3,38.6,29.87,West,259,6.4,10.5,18,0.00,,CLR,0.00,VWS V14.01,2013-05-03 23:10:00,
2013-05-03 16:20:00,86.5,35.1,29.87,SW,219,9.1,12.1,16,0.00,,CLR,0.00,VWS V14.01,2013-05-03 23:20:00,
2013-05-03 16:30:00,86.2,34.8,29.87,SW,229,3.8,9.9,16,0.00,,CLR,0.00,VWS V14.01,2013-05-03 23:30:00,
2013-05-03 16:40:00,86.0,34.6,29.87,SSW,206,13.2,13.2,16,0.00,,CLR,0.00,VWS V14.01,2013-05-03 23:40:00,
2013-05-03 16:50:00,86.0,34.6,29.87,SSW,211,7.0,13.2,16,0.00,,CLR,0.00,VWS V14.01,2013-05-03 23:50:00,
2013-05-03 17:30:00,84.4,33.3,29.84,WSW,237,7.5,11.0,16,0.00,,CLR,0.00,VWS V14.01,2013-05-04 00:30:00,
2013-05-03 17:40:00,83.8,37.2,29.84,SSW,207,7.5,11.0,19,0.00,,CLR,0.00,VWS V14.01,2013-05-04 00:40:00,
2013-05-03 17:50:00,82.9,37.8,29.84,SW,233,9.9,11.5,20,0.00,,CLR,0.00,VWS V14.01,2013-05-04 00:50:00,
2013-05-03 18:00:00,81.5,41.3,29.84,WNW,290,7.0,11.5,24,0.00,,CLR,0.00,VWS V14.01,2013-05-04 01:00:00,
2013-05-03 18:10:00,80.2,44.2,29.84,WSW,240,6.4,10.5,28,0.00,,CLR,0.00,VWS V14.01,2013-05-04 01:10:00,
2013-05-03 18:20:00,79.3,45.2,29.84,WSW,241,4.3,9.7,30,0.00,,CLR,0.00,VWS V14.01,2013-05-04 01:20:00,
2013-05-03 18:30:00,78.4,45.3,29.84,SSW,208,6.4,9.1,31,0.00,,CLR,0.00,VWS V14.01,2013-05-04 01:30:00,
2013-05-03 18:40:00,77.7,45.5,29.84,West,268,3.2,9.1,32,0.00,,CLR,0.00,VWS V14.01,2013-05-04 01:40:00,
2013-05-03 18:50:00,77.4,45.2,29.84,SW,221,3.2,7.5,32,0.00,,CLR,0.00,VWS V14.01,2013-05-04 01:50:00,
2013-05-03 19:00:00,76.6,47.0,29.84,SW,227,3.8,8.6,35,0.00,,FEW070,0.00,VWS V14.01,2013-05-04 02:00:00,
2013-05-03 19:10:00,75.7,47.7,29.84,SW,227,6.4,7.5,37,0.00,,FEW070,0.00,VWS V14.01,2013-05-04 02:10:00,
2013-05-03 19:20:00,75.0,46.3,29.84,SW,234,3.8,8.6,36,0.00,,FEW070,0.00,VWS V14.01,2013-05-04 02:20:00,
2013-05-03 19:30:00,74.5,46.5,29.84,West,273,2.7,5.9,37,0.00,,FEW070,0.00,VWS V14.01,2013-05-04 02:30:00,
2013-05-03 19:40:00,74.1,47.6,29.84,West,274,0.0,3.2,39,0.00,,FEW070,0.00,VWS V14.01,2013-05-04 02:40:00,
2013-05-03 19:50:00,73.6,47.8,29.84,SSE,159,0.0,6.4,40,0.00,,CLR,0.00,VWS V14.01,2013-05-04 02:50:00,
2013-05-03 20:00:00,73.0,51.6,29.84,SSW,207,0.0,6.4,47,0.00,,CLR,0.00,VWS V14.01,2013-05-04 03:00:00,
2013-05-03 20:10:00,71.8,52.2,29.84,SSE,153,3.2,4.3,50,0.00,,CLR,0.00,VWS V14.01,2013-05-04 03:10:00,
2013-05-03 20:20:00,70.7,53.3,29.84,SE,144,0.0,3.2,54,0.00,,CLR,0.00,VWS V14.01,2013-05-04 03:20:00,
2013-05-03 20:30:00,69.4,53.6,29.84,SSE,149,0.0,4.3,57,0.00,,CLR,0.00,VWS V14.01,2013-05-04 03:30:00,
2013-05-03 20:40:00,68.9,54.0,29.84,SSE,149,0.0,0.0,59,0.00,,CLR,0.00,VWS V14.01,2013-05-04 03:40:00,
2013-05-03 20:50:00,68.2,53.8,29.84,SSE,149,0.0,0.0,60,0.00,,CLR,0.00,VWS V14.01,2013-05-04 03:50:00,
2013-05-03 21:00:00,67.8,53.0,29.84,SSE,149,0.0,3.2,59,0.00,,CLR,0.00,VWS V14.01,2013-05-04 04:00:00,
2013-05-03 21:10:00,67.6,51.9,29.84,SSE,150,0.0,0.0,57,0.00,,CLR,0.00,VWS V14.01,2013-05-04 04:10:00,
2013-05-03 21:20:00,67.6,51.4,29.84,SSE,149,0.0,0.0,56,0.00,,CLR,0.00,VWS V14.01,2013-05-04 04:20:00,
2013-05-03 21:30:00,67.5,50.2,29.84,SSE,149,0.0,0.0,54,0.00,,CLR,0.00,VWS V14.01,2013-05-04 04:30:00,
2013-05-03 21:40:00,67.1,47.3,29.84,NNE,33,0.0,4.3,49,0.00,,CLR,0.00,VWS V14.01,2013-05-04 04:40:00,
2013-05-03 21:50:00,66.6,45.7,29.84,NNE,33,0.0,0.0,47,0.00,,CLR,0.00,VWS V14.01,2013-05-04 04:50:00,
2013-05-03 22:00:00,66.0,44.1,29.84,NNE,33,0.0,0.0,45,0.00,,CLR,0.00,VWS V14.01,2013-05-04 05:00:00,
2013-05-03 22:10:00,65.7,43.2,29.84,NNW,333,0.0,2.7,44,0.00,,CLR,0.00,VWS V14.01,2013-05-04 05:10:00,
2013-05-03 22:20:00,65.3,42.2,29.84,NNW,333,0.0,3.2,43,0.00,,CLR,0.00,VWS V14.01,2013-05-04 05:20:00,
2013-05-03 22:30:00,65.1,42.1,29.84,NNW,333,0.0,0.0,43,0.00,,CLR,0.00,VWS V14.01,2013-05-04 05:30:00,
2013-05-03 22:40:00,64.9,42.5,29.84,NNW,332,0.0,2.7,44,0.00,,CLR,0.00,VWS V14.01,2013-05-04 05:40:00,
2013-05-03 22:50:00,64.6,42.2,29.84,NNW,333,0.0,0.0,44,0.00,,CLR,0.00,VWS V14.01,2013-05-04 05:50:00,
2013-05-03 23:00:00,64.6,41.0,29.81,North,356,0.0,3.8,42,0.00,,CLR,0.00,VWS V14.01,2013-05-04 06:00:00,
2013-05-03 23:10:00,64.6,39.1,29.81,North,6,3.2,4.3,39,0.00,,CLR,0.00,VWS V14.01,2013-05-04 06:10:00,
2013-05-03 23:20:00,65.5,38.5,29.81,NNE,14,4.8,5.9,37,0.00,,CLR,0.00,VWS V14.01,2013-05-04 06:20:00,
2013-05-03 23:30:00,65.7,38.0,29.81,NNE,23,0.0,4.8,36,0.00,,CLR,0.00,VWS V14.01,2013-05-04 06:30:00,
2013-05-03 23:40:00,65.5,37.1,29.81,NNE,23,0.0,0.0,35,0.00,,CLR,0.00,VWS V14.01,2013-05-04 06:40:00,
2013-05-03 23:50:00,65.3,37.0,29.81,NNE,23,0.0,0.0,35,0.00,,CLR,0.00,VWS V14.01,2013-05-04 06:50:00,